Time;durP1;ratioP1;P1;durP2;ratioP2;P2;SDS_P1;SDS_P2;PMS_P1;PMS_P2;Temp;Humidity;BMP_temperature;BMP_pressure;BME280_temperature;BME280_humidity;BME280_pressure;Samples;Min_cycle;Max_cycle;Signal;HPM_P1;HPM_P2
2022/11/04 00:01:38;;;;;;;17.77;12.52;;;;;;;9.44;100.00;100047.56;5034419;28;20476;-65
2022/11/04 00:04:03;;;;;;;16.38;10.93;;;;;;;9.41;100.00;100064.75;5034751;28;20029;-65
2022/11/04 00:06:29;;;;;;;12.82;10.35;;;;;;;9.28;100.00;100058.22;5034270;28;20112;-65
2022/11/04 00:08:56;;;;;;;13.63;10.40;;;;;;;9.15;100.00;100058.00;5034064;28;20094;-66
2022/11/04 00:14:08;;;;;;;15.52;10.68;;;;;;;9.04;100.00;100056.63;5033945;28;20064;-66
2022/11/04 00:19:18;;;;;;;13.38;10.00;;;;;;;8.96;100.00;100063.72;5034137;28;20442;-65
2022/11/04 00:29:55;;;;;;;13.25;9.90;;;;;;;8.90;100.00;100081.53;5035492;28;20238;-64
2022/11/04 00:35:05;;;;;;;13.90;10.98;;;;;;;8.89;100.00;100079.91;5059828;28;20121;-68
2022/11/04 00:37:31;;;;;;;12.30;10.40;;;;;;;8.85;100.00;100076.94;5059400;28;20098;-67
2022/11/04 00:39:56;;;;;;;13.93;10.20;;;;;;;8.82;100.00;100082.28;5050379;28;20328;-68
2022/11/04 00:42:21;;;;;;;13.20;10.07;;;;;;;8.76;100.00;100075.25;5056385;28;20523;-68
2022/11/04 00:44:47;;;;;;;14.20;10.93;;;;;;;8.72;100.00;100073.13;5055385;28;20400;-64
2022/11/04 00:47:12;;;;;;;16.23;11.63;;;;;;;8.70;100.00;100077.31;5054555;28;20492;-66
2022/11/04 00:49:37;;;;;;;18.77;12.50;;;;;;;8.66;100.00;100082.63;5055174;28;20029;-66
2022/11/04 00:52:03;;;;;;;19.83;13.93;;;;;;;8.70;100.00;100091.09;5048308;28;20021;-67
2022/11/04 00:54:28;;;;;;;21.35;15.07;;;;;;;8.73;100.00;100084.97;5054404;28;20033;-66
2022/11/04 00:56:53;;;;;;;21.65;15.60;;;;;;;8.70;100.00;100091.09;5054116;28;20188;-67
2022/11/04 00:59:19;;;;;;;21.35;15.43;;;;;;;8.71;100.00;100095.47;5053748;28;20037;-65
2022/11/04 01:01:44;;;;;;;22.25;15.32;;;;;;;8.68;100.00;100094.16;5053223;28;20025;-64
2022/11/04 01:04:09;;;;;;;21.25;15.50;;;;;;;8.70;100.00;100088.34;5053436;28;20027;-64
2022/11/04 01:06:35;;;;;;;24.48;17.27;;;;;;;8.71;100.00;100095.47;5053339;28;20132;-66
2022/11/04 01:09:07;;;;;;;22.80;16.30;;;;;;;8.68;100.00;100080.38;5054018;28;20036;-67
2022/11/04 01:11:32;;;;;;;23.05;17.42;;;;;;;8.76;100.00;100089.84;5035631;28;20111;-67
2022/11/04 01:13:58;;;;;;;23.58;17.75;;;;;;;8.78;100.00;100079.34;5052906;28;20057;-66
2022/11/04 01:16:24;;;;;;;24.10;18.90;;;;;;;8.85;100.00;100099.00;5053246;28;20033;-67
2022/11/04 01:18:49;;;;;;;25.77;19.55;;;;;;;8.81;100.00;100088.91;5053280;28;20064;-66
2022/11/04 01:21:16;;;;;;;24.67;18.55;;;;;;;8.80;100.00;100095.56;5053484;28;20029;-67
2022/11/04 01:23:43;;;;;;;25.88;19.40;;;;;;;8.80;100.00;100093.59;5053195;28;20025;-66
2022/11/04 01:26:20;;;;;;;25.50;19.05;;;;;;;8.84;100.00;100091.03;5053700;28;20025;-68
2022/11/04 01:28:47;;;;;;;25.27;18.33;;;;;;;8.81;100.00;100106.28;5053482;28;20040;-68
2022/11/04 01:31:15;;;;;;;25.90;19.77;;;;;;;8.73;100.00;100101.50;5053243;28;20024;-68
2022/11/04 01:33:41;;;;;;;24.67;17.60;;;;;;;8.77;100.00;100118.25;5052925;28;20086;-68
2022/11/04 01:36:08;;;;;;;26.10;19.08;;;;;;;8.78;100.00;100119.88;5052974;28;20021;-67
2022/11/04 01:38:33;;;;;;;25.60;17.95;;;;;;;8.80;100.00;100112.91;5052616;28;20033;-68
2022/11/04 01:40:59;;;;;;;25.63;18.77;;;;;;;8.82;100.00;100115.38;5048206;28;20059;-68
2022/11/04 01:43:49;;;;;;;26.20;18.80;;;;;;;8.84;100.00;100115.84;5052956;28;20496;-68
2022/11/04 01:46:26;;;;;;;23.67;16.85;;;;;;;8.81;100.00;100116.50;5050696;28;20060;-67
2022/11/04 01:48:55;;;;;;;24.00;17.15;;;;;;;8.81;100.00;100103.50;5033337;28;20063;-66
2022/11/04 01:51:20;;;;;;;23.95;17.88;;;;;;;8.87;100.00;100112.47;5052487;28;20514;-66
2022/11/04 01:53:49;;;;;;;25.33;19.13;;;;;;;8.77;100.00;100112.72;5052879;28;20021;-70
2022/11/04 01:56:15;;;;;;;25.27;17.67;;;;;;;8.71;100.00;100099.06;5052458;28;20033;-65
2022/11/04 01:58:47;;;;;;;24.40;17.38;;;;;;;8.60;100.00;100092.16;5052194;28;20105;-67
2022/11/04 02:01:12;;;;;;;25.15;17.33;;;;;;;8.60;100.00;100107.91;5051339;28;20495;-69
2022/11/04 02:03:47;;;;;;;24.27;16.35;;;;;;;8.58;100.00;100109.03;5052068;28;20032;-67
2022/11/04 02:06:14;;;;;;;24.65;17.55;;;;;;;8.51;100.00;100118.84;5052474;28;20116;-69
2022/11/04 02:08:40;;;;;;;24.95;16.63;;;;;;;8.45;100.00;100120.84;5052300;28;20564;-68
2022/11/04 02:11:05;;;;;;;25.42;17.63;;;;;;;8.45;100.00;100125.56;5051678;28;20040;-65
2022/11/04 02:13:34;;;;;;;25.38;16.50;;;;;;;8.38;100.00;100128.72;5051882;28;20058;-65
2022/11/04 02:16:23;;;;;;;24.55;16.70;;;;;;;8.33;100.00;100126.91;5051518;28;20024;-65
2022/11/04 02:19:28;;;;;;;24.40;15.98;;;;;;;8.24;100.00;100126.00;5049314;22;20120;-62
2022/11/04 02:22:01;;;;;;;23.73;14.98;;;;;;;8.20;100.00;100130.47;5031760;28;20469;-62
2022/11/04 02:24:45;;;;;;;22.80;14.70;;;;;;;8.18;100.00;100135.47;5013654;28;20186;-62
2022/11/04 02:27:18;;;;;;;22.83;15.20;;;;;;;8.13;100.00;100136.41;5031589;28;20033;-62
2022/11/04 02:29:53;;;;;;;;;;;;;;;8.08;100.00;100147.53;5014099;28;20029;-62
2022/11/04 02:32:30;;;;;;;22.63;15.18;;;;;;;7.92;100.00;100139.59;5031304;28;19913;-63
2022/11/04 02:35:06;;;;;;;21.20;14.52;;;;;;;7.89;100.00;100134.69;5031450;28;20120;-60
2022/11/04 02:37:53;;;;;;;21.90;14.23;;;;;;;7.86;100.00;100145.50;5031397;28;20025;-61
2022/11/04 02:40:28;;;;;;;23.50;14.88;;;;;;;7.75;100.00;100131.09;5031807;28;20396;-62
2022/11/04 02:43:02;;;;;;;22.33;13.35;;;;;;;7.83;100.00;100143.34;5016065;28;20503;-63
2022/11/04 02:45:46;;;;;;;20.98;13.95;;;;;;;7.74;100.00;100143.25;5031050;28;20033;-62
2022/11/04 02:48:27;;;;;;;21.63;12.88;;;;;;;7.71;100.00;100141.91;5031172;28;20496;-64
2022/11/04 02:51:03;;;;;;;20.95;13.48;;;;;;;7.70;100.00;100143.00;5031428;28;20022;-61
2022/11/04 02:53:35;;;;;;;20.77;13.13;;;;;;;7.70;100.00;100145.78;5035485;28;20037;-61
2022/11/04 02:56:03;;;;;;;18.70;13.13;;;;;;;7.61;100.00;100151.19;5035239;28;20044;-62
2022/11/04 02:58:34;;;;;;;20.52;12.50;;;;;;;7.62;100.00;100136.28;5035039;28;20037;-60
2022/11/04 03:01:01;;;;;;;20.20;12.43;;;;;;;7.69;100.00;100154.34;5035358;28;20033;-62
2022/11/04 03:03:33;;;;;;;21.15;13.63;;;;;;;7.71;100.00;100155.66;5035467;28;20060;-62
2022/11/04 03:06:01;;;;;;;18.85;13.00;;;;;;;7.62;100.00;100147.31;5035006;28;20125;-62
2022/11/04 03:08:31;;;;;;;20.45;12.70;;;;;;;7.52;100.00;100136.47;5017251;28;20116;-63
2022/11/04 03:11:03;;;;;;;20.00;12.73;;;;;;;7.53;100.00;100153.78;5034889;28;20029;-62
2022/11/04 03:13:35;;;;;;;18.60;12.10;;;;;;;7.52;100.00;100163.16;5017651;28;20017;-62
2022/11/04 03:16:08;;;;;;;17.77;11.23;;;;;;;7.42;100.00;100159.47;5034914;28;20107;-63
2022/11/04 03:18:58;;;;;;;18.90;11.70;;;;;;;7.36;100.00;100151.63;5034471;28;20050;-61
2022/11/04 03:21:26;;;;;;;20.88;11.90;;;;;;;7.46;100.00;100165.22;5034970;28;20043;-62
2022/11/04 03:23:53;;;;;;;18.15;12.35;;;;;;;7.48;100.00;100173.97;5035067;28;20025;-63
2022/11/04 03:26:39;;;;;;;20.90;12.40;;;;;;;7.32;100.00;100168.72;5034767;28;20021;-62
2022/11/04 03:29:54;;;;;;;17.65;11.98;;;;;;;7.38;100.00;100182.41;5016974;28;20114;-62
2022/11/04 03:32:41;;;;;;;19.15;12.02;;;;;;;7.36;100.00;100188.22;5028185;28;20381;-62
2022/11/04 03:35:08;;;;;;;19.05;11.63;;;;;;;7.32;100.00;100189.94;5034671;28;20021;-62
2022/11/04 03:37:34;;;;;;;19.83;12.55;;;;;;;7.25;100.00;100181.22;5030591;28;20112;-61
2022/11/04 03:40:00;;;;;;;20.17;11.80;;;;;;;7.20;100.00;100186.84;5016513;28;20113;-62
2022/11/04 03:42:26;;;;;;;21.02;11.52;;;;;;;7.16;100.00;100183.88;5034368;28;20057;-62
2022/11/04 03:44:54;;;;;;;19.08;12.40;;;;;;;7.13;100.00;100184.44;5033676;28;20028;-62
2022/11/04 03:47:23;;;;;;;19.40;11.23;;;;;;;7.10;100.00;100185.03;5031193;28;20041;-62
2022/11/04 03:49:51;;;;;;;18.63;11.40;;;;;;;7.09;100.00;100188.91;5034620;28;20120;-63
2022/11/04 03:52:17;;;;;;;20.88;12.07;;;;;;;7.05;100.00;100188.69;5033973;28;20342;-61
2022/11/04 03:54:43;;;;;;;19.60;12.68;;;;;;;7.01;100.00;100193.97;5015952;28;20461;-63
2022/11/04 03:57:38;;;;;;;23.77;11.00;;;;;;;6.97;100.00;100197.63;5034412;28;20045;-61
2022/11/04 04:00:13;;;;;;;21.80;11.68;;;;;;;6.93;100.00;100182.84;5034456;28;20041;-62
2022/11/04 04:02:43;;;;;;;20.80;11.55;;;;;;;6.92;100.00;100187.50;5033774;28;20033;-62
2022/11/04 04:05:20;;;;;;;19.88;12.40;;;;;;;6.88;100.00;100183.75;5016321;28;20026;-62
2022/11/04 04:08:15;;;;;;;20.42;12.75;;;;;;;6.90;100.00;100191.69;5033980;28;20041;-62
2022/11/04 04:11:05;;;;;;;19.23;11.57;;;;;;;6.86;100.00;100188.72;5034156;28;20048;-63
2022/11/04 04:13:36;;;;;;;19.95;11.57;;;;;;;6.82;100.00;100182.16;5034152;28;20086;-61
2022/11/04 04:16:23;;;;;;;19.98;12.10;;;;;;;6.75;100.00;100198.22;5034067;28;20049;-61
2022/11/04 04:18:54;;;;;;;18.80;11.63;;;;;;;6.75;100.00;100206.47;5032869;28;20071;-62
2022/11/04 04:21:23;;;;;;;22.63;12.30;;;;;;;6.72;100.00;100205.94;5032616;28;20032;-62
2022/11/04 04:29:25;;;;;;;21.85;12.32;;;;;;;6.59;100.00;100197.59;5032804;28;20044;-63
2022/11/04 04:31:56;;;;;;;21.75;13.80;;;;;;;6.61;100.00;100209.94;5032358;28;20026;-63
2022/11/04 04:34:27;;;;;;;21.40;13.73;;;;;;;6.61;100.00;100223.69;5028476;28;20112;-62
2022/11/04 04:37:14;;;;;;;22.50;14.07;;;;;;;6.59;100.00;100222.34;5032414;28;20515;-62
2022/11/04 04:45:33;;;;;;;24.75;14.23;;;;;;;6.50;100.00;100227.69;5028639;28;20461;-61
2022/11/04 04:47:59;;;;;;;22.70;14.20;;;;;;;6.47;100.00;100231.00;5031141;28;20040;-60
2022/11/04 04:50:27;;;;;;;25.58;14.43;;;;;;;6.37;100.00;100218.22;5030793;28;20029;-62
2022/11/04 04:52:55;;;;;;;25.85;15.05;;;;;;;6.38;100.00;100231.66;5031937;28;20026;-60
2022/11/04 04:55:21;;;;;;;24.95;14.77;;;;;;;6.35;100.00;100229.50;5013898;28;20255;-61
2022/11/04 04:57:46;;;;;;;24.35;14.60;;;;;;;6.33;100.00;100230.91;5031686;28;20104;-61
2022/11/04 05:00:15;;;;;;;23.35;15.18;;;;;;;6.29;100.00;100238.91;5031888;28;20036;-61
2022/11/04 05:02:40;;;;;;;23.90;14.60;;;;;;;6.27;100.00;100232.06;5031189;28;20033;-61
2022/11/04 05:05:07;;;;;;;23.77;14.88;;;;;;;6.21;100.00;100234.88;5031822;28;20044;-61
2022/11/04 05:07:33;;;;;;;23.92;14.90;;;;;;;6.20;100.00;100237.91;5031569;28;20025;-63
2022/11/04 05:09:58;;;;;;;24.38;16.27;;;;;;;6.18;100.00;100240.13;5031476;28;20022;-62
2022/11/04 05:12:23;;;;;;;26.67;17.08;;;;;;;6.16;100.00;100245.09;5023934;28;20025;-63
2022/11/04 05:14:49;;;;;;;23.73;14.82;;;;;;;6.15;100.00;100246.19;5047838;28;20477;-61
2022/11/04 05:17:14;;;;;;;24.42;16.05;;;;;;;6.08;100.00;100241.88;5012415;28;1089068;-61
2022/11/04 05:19:40;;;;;;;25.00;14.95;;;;;;;6.07;100.00;100244.91;5052326;28;20067;-62
2022/11/04 05:22:06;;;;;;;22.95;14.75;;;;;;;6.02;100.00;100242.22;5052247;28;20025;-62
2022/11/04 05:24:31;;;;;;;22.35;13.98;;;;;;;5.99;100.00;100253.75;5052318;28;20457;-63
2022/11/04 05:26:56;;;;;;;23.60;13.98;;;;;;;5.96;100.00;100257.88;5034184;28;20021;-62
2022/11/04 05:29:22;;;;;;;21.10;14.55;;;;;;;5.92;100.00;100263.13;5051982;28;20090;-62
2022/11/04 05:31:47;;;;;;;26.40;14.80;;;;;;;5.89;100.00;100263.75;5052194;28;20087;-63
2022/11/04 05:34:12;;;;;;;23.55;15.05;;;;;;;5.87;100.00;100268.69;5034068;28;20029;-62
2022/11/04 05:36:38;;;;;;;23.60;15.38;;;;;;;5.89;100.00;100271.97;5052074;28;20342;-61
2022/11/04 05:39:05;;;;;;;22.15;14.50;;;;;;;5.89;100.00;100273.88;5051403;28;20124;-62
2022/11/04 05:41:30;;;;;;;23.63;14.32;;;;;;;5.90;100.00;100270.03;5050565;28;20028;-61
2022/11/04 05:43:58;;;;;;;21.65;14.57;;;;;;;5.90;100.00;100281.00;5051766;28;20480;-61
2022/11/04 05:46:24;;;;;;;24.30;15.13;;;;;;;5.92;100.00;100278.81;5045383;28;20025;-63
2022/11/04 05:48:49;;;;;;;22.42;14.50;;;;;;;5.97;100.00;100281.50;5051182;28;20064;-61
2022/11/04 05:51:17;;;;;;;21.85;14.48;;;;;;;5.98;100.00;100283.13;5051751;28;20075;-61
2022/11/04 05:53:42;;;;;;;23.35;14.65;;;;;;;6.00;100.00;100283.69;5051635;28;20499;-61
2022/11/04 05:56:08;;;;;;;25.50;14.63;;;;;;;6.06;100.00;100289.97;5051787;28;20044;-61
2022/11/04 05:58:33;;;;;;;23.23;14.70;;;;;;;6.10;100.00;100293.75;5051473;28;20029;-61
2022/11/04 06:01:24;;;;;;;22.45;14.18;;;;;;;6.15;100.00;100296.47;5051596;28;20107;-61
2022/11/04 06:03:51;;;;;;;22.55;14.20;;;;;;;6.19;100.00;100288.47;5011947;28;20431;-58
2022/11/04 06:06:16;;;;;;;21.48;14.23;;;;;;;6.23;100.00;100293.09;5011991;28;20025;-61
2022/11/04 06:08:41;;;;;;;23.42;14.60;;;;;;;6.28;100.00;100294.97;5004331;28;20577;-62
2022/11/04 06:11:06;;;;;;;20.33;14.32;;;;;;;6.33;100.00;100296.84;5011787;28;20022;-62
2022/11/04 06:13:32;;;;;;;21.25;13.98;;;;;;;6.35;100.00;100289.94;5012093;28;20030;-64
2022/11/04 06:15:57;;;;;;;24.55;14.95;;;;;;;6.38;100.00;100297.59;5011892;28;20030;-62
2022/11/04 06:18:22;;;;;;;23.83;14.25;;;;;;;6.40;100.00;100300.88;5011723;28;20132;-61
2022/11/04 06:20:48;;;;;;;23.45;13.57;;;;;;;6.45;100.00;100311.00;5012110;28;20025;-62
2022/11/04 06:23:13;;;;;;;24.58;13.77;;;;;;;6.48;100.00;100312.34;5012329;28;20102;-62
2022/11/04 06:25:38;;;;;;;21.33;13.75;;;;;;;6.49;100.00;100316.72;4994293;28;20382;-62
2022/11/04 06:28:03;;;;;;;23.52;13.93;;;;;;;6.49;100.00;100305.72;5012159;28;20484;-64
2022/11/04 06:30:29;;;;;;;23.85;14.57;;;;;;;6.48;100.00;100315.09;5012402;28;20021;-62
2022/11/04 06:32:54;;;;;;;22.33;14.30;;;;;;;6.48;100.00;100315.09;5011931;28;20033;-61
2022/11/04 06:35:19;;;;;;;20.88;14.70;;;;;;;6.47;100.00;100324.44;4994416;28;20473;-62
2022/11/04 06:37:45;;;;;;;24.88;14.45;;;;;;;6.45;100.00;100312.91;5012033;28;20065;-61
2022/11/04 06:40:10;;;;;;;22.58;15.07;;;;;;;6.46;100.00;100317.28;5011769;28;20025;-61
2022/11/04 06:42:35;;;;;;;22.15;14.10;;;;;;;6.47;100.00;100325.25;5004555;28;20021;-62
2022/11/04 06:45:01;;;;;;;20.65;14.88;;;;;;;6.48;100.00;100326.88;5012082;28;20030;-62
2022/11/04 06:47:26;;;;;;;21.75;14.23;;;;;;;6.49;100.00;100331.28;5012023;28;20469;-62
2022/11/04 06:49:51;;;;;;;24.65;14.60;;;;;;;6.52;100.00;100335.34;5011815;28;20049;-61
2022/11/04 06:52:16;;;;;;;24.88;14.60;;;;;;;6.54;100.00;100341.38;4994059;28;20029;-61
2022/11/04 06:54:42;;;;;;;21.27;15.02;;;;;;;6.56;100.00;100347.41;5011671;28;20018;-62
2022/11/04 06:57:10;;;;;;;23.05;14.98;;;;;;;6.56;100.00;100345.47;5011090;28;20380;-63
2022/11/04 06:59:36;;;;;;;25.33;14.60;;;;;;;6.59;100.00;100355.09;5011845;28;20044;-63
2022/11/04 07:02:01;;;;;;;21.58;13.85;;;;;;;6.64;100.00;100365.22;5011650;28;20408;-63
2022/11/04 07:04:26;;;;;;;24.02;13.60;;;;;;;6.69;100.00;100351.41;5003980;28;20030;-62
2022/11/04 07:06:51;;;;;;;24.15;14.10;;;;;;;6.75;100.00;100357.66;4994177;28;20113;-62
2022/11/04 07:09:17;;;;;;;21.98;14.07;;;;;;;6.79;100.00;100364.22;5012589;28;20034;-62
2022/11/04 07:11:43;;;;;;;22.38;13.85;;;;;;;6.84;100.00;100364.16;5011670;28;20025;-61
2022/11/04 07:14:09;;;;;;;24.88;13.85;;;;;;;6.87;100.00;100364.38;5011837;28;20037;-62
2022/11/04 07:16:35;;;;;;;21.52;13.90;;;;;;;6.93;100.00;100364.34;5011916;28;20026;-63
2022/11/04 07:19:01;;;;;;;21.58;13.02;;;;;;;6.96;100.00;100369.22;4994025;28;20104;-61
2022/11/04 07:21:27;;;;;;;22.67;13.27;;;;;;;7.00;100.00;100373.84;5011694;28;20057;-63
2022/11/04 07:23:52;;;;;;;21.33;12.77;;;;;;;7.04;100.00;100374.06;5011482;28;20492;-63
2022/11/04 07:26:17;;;;;;;21.40;12.82;;;;;;;7.11;100.00;100381.97;5011549;28;20506;-62
2022/11/04 07:28:43;;;;;;;22.67;13.05;;;;;;;7.12;100.00;100384.47;5011775;28;20518;-62
2022/11/04 07:31:10;;;;;;;21.70;13.23;;;;;;;7.18;100.00;100379.69;5011725;28;20033;-62
2022/11/04 07:33:36;;;;;;;22.48;13.25;;;;;;;7.24;100.00;100383.19;5011310;28;20096;-62
2022/11/04 07:36:04;;;;;;;24.48;15.38;;;;;;;7.24;100.00;100374.94;5011224;28;20466;-62
2022/11/04 07:38:29;;;;;;;23.58;13.70;;;;;;;7.32;100.00;100390.81;5009492;28;20041;-62
2022/11/04 07:40:57;;;;;;;23.23;13.50;;;;;;;7.38;100.00;100392.38;5015116;28;20091;-62
2022/11/04 07:43:22;;;;;;;23.83;13.88;;;;;;;7.41;100.00;100380.78;5014907;28;20034;-62
2022/11/04 07:46:07;;;;;;;23.77;13.52;;;;;;;7.48;100.00;100391.41;5014592;28;20076;-62
2022/11/04 07:48:34;;;;;;;23.20;14.25;;;;;;;7.52;100.00;100389.72;5014660;28;20500;-62
2022/11/04 07:51:00;;;;;;;24.77;13.98;;;;;;;7.56;100.00;100392.69;5014592;28;20097;-62
2022/11/04 07:53:26;;;;;;;22.80;13.52;;;;;;;7.60;100.00;100385.47;5014775;28;20121;-63
2022/11/04 07:55:52;;;;;;;22.17;13.07;;;;;;;7.67;100.00;100398.84;5014486;28;20033;-63
2022/11/04 07:58:18;;;;;;;24.27;14.18;;;;;;;7.71;100.00;100403.47;5012052;28;20084;-64
2022/11/04 08:00:44;;;;;;;23.83;13.50;;;;;;;7.74;100.00;100394.63;5012691;28;20026;-62
2022/11/04 08:03:09;;;;;;;23.40;12.75;;;;;;;7.82;100.00;100404.16;5014158;28;20034;-61
2022/11/04 08:05:34;;;;;;;20.42;12.80;;;;;;;7.86;100.00;100402.41;5020048;28;20492;-62
2022/11/04 08:08:00;;;;;;;23.65;13.20;;;;;;;7.94;100.00;100407.25;5034018;28;20057;-63
2022/11/04 08:10:25;;;;;;;21.40;13.02;;;;;;;8.05;100.00;100412.59;5034204;28;20409;-62
2022/11/04 08:12:51;;;;;;;21.02;12.88;;;;;;;8.14;100.00;100413.56;5034172;28;20108;-63
2022/11/04 08:15:16;;;;;;;21.50;12.60;;;;;;;8.22;100.00;100409.31;5034075;28;20033;-63
2022/11/04 08:17:42;;;;;;;23.85;13.55;;;;;;;8.32;100.00;100413.81;5033369;28;20128;-62
2022/11/04 08:20:08;;;;;;;20.48;12.35;;;;;;;8.36;100.00;100418.41;5033870;28;20104;-62
2022/11/04 08:22:34;;;;;;;21.70;13.13;;;;;;;8.40;100.00;100415.91;5033235;28;20178;-61
2022/11/04 08:24:59;;;;;;;23.50;12.73;;;;;;;8.46;100.00;100425.72;5033272;28;20033;-61
2022/11/04 08:27:24;;;;;;;20.95;12.68;;;;;;;8.48;100.00;100420.75;5033235;28;20445;-62
2022/11/04 08:29:50;;;;;;;21.17;12.63;;;;;;;8.56;100.00;100427.50;5033466;28;20451;-61
2022/11/04 08:32:15;;;;;;;20.13;12.30;;;;;;;8.61;100.00;100432.94;5033187;28;20457;-61
2022/11/04 08:34:41;;;;;;;20.50;12.55;;;;;;;8.63;100.00;100440.88;5025424;28;20034;-61
2022/11/04 08:37:06;;;;;;;22.48;13.30;;;;;;;8.68;100.00;100440.81;5032835;28;20029;-61
2022/11/04 08:39:32;;;;;;;21.30;12.13;;;;;;;8.70;100.00;100444.06;5023998;28;20038;-59
2022/11/04 08:41:57;;;;;;;20.52;12.48;;;;;;;8.74;100.00;100442.34;5011452;28;20022;-59
2022/11/04 08:44:22;;;;;;;20.85;13.10;;;;;;;8.80;100.00;100446.63;5011336;28;20384;-61
2022/11/04 08:46:48;;;;;;;19.35;12.52;;;;;;;8.92;100.00;100442.56;5010353;28;20686;-61
2022/11/04 08:49:13;;;;;;;22.40;13.30;;;;;;;9.02;100.00;100448.72;5009827;28;20080;-61
2022/11/04 08:51:42;;;;;;;22.02;13.32;;;;;;;9.14;100.00;100442.72;5011153;28;20041;-61
2022/11/04 08:54:08;;;;;;;20.90;12.82;;;;;;;9.23;100.00;100445.56;5009293;28;20040;-60
2022/11/04 08:56:36;;;;;;;21.70;12.93;;;;;;;9.18;100.00;100440.16;5001828;28;20545;-61
2022/11/04 08:59:03;;;;;;;21.20;12.48;;;;;;;9.29;100.00;100452.63;5009225;28;20048;-60
2022/11/04 09:01:31;;;;;;;25.80;13.02;;;;;;;9.28;100.00;100453.75;5010499;28;20088;-60
2022/11/04 09:03:56;;;;;;;23.60;13.05;;;;;;;9.32;100.00;100463.03;5022240;28;20030;-61
2022/11/04 09:06:26;;;;;;;20.23;12.90;;;;;;;9.39;100.00;100473.66;5042876;28;20127;-60
2022/11/04 09:08:54;;;;;;;24.98;13.43;;;;;;;9.43;100.00;100482.16;5030893;28;20188;-59
2022/11/04 09:11:20;;;;;;;22.15;12.73;;;;;;;9.49;100.00;100489.22;5030742;28;20112;-59
2022/11/04 09:13:45;;;;;;;22.15;13.48;;;;;;;9.58;100.00;100487.38;5023358;28;20109;-60
2022/11/04 09:16:12;;;;;;;23.48;13.23;;;;;;;9.69;100.00;100499.03;5015829;28;20018;-59
2022/11/04 09:18:37;;;;;;;22.23;13.85;;;;;;;9.77;100.00;100492.75;5019829;28;20053;-60
2022/11/04 09:21:05;;;;;;;21.05;13.50;;;;;;;9.83;100.00;100488.75;5030516;28;20034;-60
2022/11/04 09:23:31;;;;;;;21.27;13.57;;;;;;;9.91;100.00;100494.69;5030640;28;20025;-61
2022/11/04 09:26:01;;;;;;;21.15;13.35;;;;;;;9.98;100.00;100492.31;5030608;28;20382;-59
2022/11/04 09:28:27;;;;;;;21.50;13.63;;;;;;;10.05;100.00;100494.66;5030239;28;20136;-61
2022/11/04 09:30:52;;;;;;;23.60;13.20;;;;;;;10.12;100.00;100495.03;5024322;28;20588;-61
2022/11/04 09:33:18;;;;;;;22.88;13.60;;;;;;;10.18;100.00;100498.50;5028928;28;20140;-60
2022/11/04 09:35:43;;;;;;;22.15;13.00;;;;;;;10.24;100.00;100505.53;5029953;28;20397;-61
2022/11/04 09:38:08;;;;;;;20.85;12.73;;;;;;;10.29;100.00;100508.22;5030085;28;20388;-61
2022/11/04 09:40:36;;;;;;;20.35;13.73;;;;;;;10.33;100.00;100511.16;5029558;28;20077;-59
2022/11/04 09:43:26;;;;;;;21.13;13.20;;;;;;;10.33;100.00;100509.19;5029710;28;20187;-60
2022/11/04 09:45:52;;;;;;;23.33;14.50;;;;;;;10.29;100.00;100519.25;5030382;28;20048;-60
2022/11/04 09:48:25;;;;;;;23.23;14.45;;;;;;;10.32;100.00;100528.88;5030696;28;20030;-61
2022/11/04 09:50:54;;;;;;;21.65;14.43;;;;;;;10.34;100.00;100524.66;5030528;28;20172;-60
2022/11/04 09:53:30;;;;;;;23.20;14.23;;;;;;;10.38;100.00;100533.19;5028799;28;20488;-61
2022/11/04 09:56:22;;;;;;;24.75;14.27;;;;;;;10.39;100.00;100532.84;5029707;28;20048;-61
2022/11/04 09:58:51;;;;;;;21.90;14.30;;;;;;;10.38;100.00;100544.25;5028221;28;20065;-59
2022/11/04 10:01:29;;;;;;;22.40;14.13;;;;;;;10.41;100.00;100541.66;5027667;28;20361;-59
2022/11/04 10:04:04;;;;;;;22.13;14.25;;;;;;;10.42;100.00;100546.06;5028922;28;20030;-60
2022/11/04 10:06:40;;;;;;;23.98;14.23;;;;;;;10.44;100.00;100548.50;5029228;28;20036;-61
2022/11/04 10:09:16;;;;;;;23.52;13.88;;;;;;;10.43;100.00;100547.69;5029988;28;20037;-60
2022/11/04 10:12:00;;;;;;;22.40;14.48;;;;;;;10.52;100.00;100552.50;5029845;28;20045;-60
2022/11/04 10:14:25;;;;;;;;;;;;;;;10.56;100.00;100547.97;5029636;28;20021;-61
2022/11/04 10:17:18;;;;;;;22.17;15.47;;;;;;;10.51;100.00;100548.09;5029813;28;19920;-61
2022/11/04 10:19:46;;;;;;;22.80;14.23;;;;;;;10.48;100.00;100551.50;5029390;28;20389;-60
2022/11/04 10:22:31;;;;;;;23.55;15.32;;;;;;;10.51;100.00;100548.09;5029370;28;20029;-59
2022/11/04 10:25:22;;;;;;;22.45;14.70;;;;;;;10.53;100.00;100552.16;5029324;28;20026;-58
2022/11/04 10:27:48;;;;;;;24.77;14.90;;;;;;;10.56;100.00;100559.03;5009194;28;20045;-60
2022/11/04 10:30:14;;;;;;;23.48;15.27;;;;;;;10.59;100.00;100561.16;5028997;28;20025;-60
2022/11/04 10:32:55;;;;;;;23.38;15.32;;;;;;;10.64;100.00;100572.13;5029263;28;20083;-61
2022/11/04 10:35:27;;;;;;;23.98;15.55;;;;;;;10.71;100.00;100578.03;5029245;28;20392;-60
2022/11/04 10:37:54;;;;;;;24.38;17.27;;;;;;;10.71;100.00;100572.50;5011030;28;20520;-59
2022/11/04 10:40:19;;;;;;;25.25;17.33;;;;;;;10.84;100.00;100581.88;5029131;28;20045;-61
2022/11/04 10:42:45;;;;;;;23.48;16.20;;;;;;;10.81;99.15;100574.22;5029139;28;20061;-60
2022/11/04 10:45:14;;;;;;;25.38;16.88;;;;;;;10.89;100.00;100578.16;5029148;28;20049;-59
2022/11/04 10:48:12;;;;;;;26.40;17.75;;;;;;;11.00;98.67;100579.53;5028989;28;20087;-60
2022/11/04 10:50:53;;;;;;;27.02;16.83;;;;;;;11.03;99.33;100578.91;5028463;28;20069;-59
2022/11/04 10:53:22;;;;;;;26.33;18.08;;;;;;;11.12;99.63;100572.63;5029344;28;20109;-59
2022/11/04 10:55:58;;;;;;;26.08;17.35;;;;;;;11.32;100.00;100585.94;5028920;28;20116;-60
2022/11/04 10:58:28;;;;;;;24.77;16.23;;;;;;;11.34;96.86;100578.09;5027167;28;20445;-60
2022/11/04 11:00:56;;;;;;;24.30;16.33;;;;;;;11.44;96.96;100565.09;5028498;28;20582;-60
2022/11/04 11:03:40;;;;;;;26.98;16.05;;;;;;;11.58;97.10;100571.38;5028848;28;20168;-60
2022/11/04 11:06:14;;;;;;;25.23;15.82;;;;;;;11.60;97.17;100559.97;5028944;28;20029;-59
2022/11/04 11:08:41;;;;;;;25.63;15.30;;;;;;;11.64;95.65;100572.84;5028783;28;20033;-60
2022/11/04 11:11:07;;;;;;;26.73;15.85;;;;;;;11.66;95.08;100575.31;5028891;28;20036;-60
2022/11/04 11:13:41;;;;;;;24.38;15.25;;;;;;;11.61;92.58;100581.81;5031133;28;20401;-61
2022/11/04 11:16:27;;;;;;;24.83;14.43;;;;;;;11.60;94.20;100585.72;5031924;28;20331;-61
2022/11/04 11:19:17;;;;;;;24.48;14.07;;;;;;;11.48;92.58;100593.81;5032385;28;20061;-60
2022/11/04 11:21:48;;;;;;;25.00;14.63;;;;;;;11.22;92.00;100598.06;5032461;28;20044;-60
2022/11/04 11:24:18;;;;;;;28.10;14.38;;;;;;;11.16;92.97;100604.06;5032704;28;20026;-59
2022/11/04 11:26:48;;;;;;;23.70;13.93;;;;;;;11.19;93.35;100601.47;5032529;28;20061;-59
2022/11/04 11:29:26;;;;;;;22.42;13.95;;;;;;;11.23;93.44;100596.13;5032637;28;20026;-60
2022/11/04 11:31:53;;;;;;;24.33;14.32;;;;;;;11.27;94.20;100599.88;5032529;28;20108;-60
2022/11/04 11:34:26;;;;;;;23.40;14.70;;;;;;;11.36;94.91;100595.22;5032346;28;20030;-60
2022/11/04 11:36:54;;;;;;;22.13;14.13;;;;;;;11.35;93.22;100590.81;5032562;28;20045;-60
2022/11/04 11:39:22;;;;;;;24.35;15.23;;;;;;;11.50;93.50;100591.56;5032324;28;20288;-61
2022/11/04 11:41:54;;;;;;;23.90;15.25;;;;;;;11.66;93.29;100587.22;5032503;28;20029;-59
2022/11/04 11:44:37;;;;;;;22.10;14.02;;;;;;;11.71;90.45;100575.97;5032233;28;20064;-60
2022/11/04 11:47:17;;;;;;;26.13;15.25;;;;;;;11.80;90.97;100575.22;5026139;28;20166;-60
2022/11/04 11:49:43;;;;;;;23.13;15.38;;;;;;;11.92;89.69;100597.56;5031228;28;20037;-60